Time;durP1;ratioP1;P1;durP2;ratioP2;P2;SDS_P1;SDS_P2;PMS_P1;PMS_P2;Temp;Humidity;BMP_temperature;BMP_pressure;BME280_temperature;BME280_humidity;BME280_pressure;Samples;Min_cycle;Max_cycle;Signal;HPM_P1;HPM_P2
2022/12/03 00:00:38;;;;;;;35.63;19.80;;;;;;;1.64;100.00;96377.59;5032632;28;104024;-66
2022/12/03 00:03:06;;;;;;;34.37;19.57;;;;;;;1.60;100.00;96375.59;5030978;27;101776;-66
2022/12/03 00:05:33;;;;;;;32.20;19.03;;;;;;;1.57;100.00;96371.53;5031172;27;102345;-66
2022/12/03 00:08:00;;;;;;;34.50;19.73;;;;;;;1.53;100.00;96375.53;5030362;27;103080;-66
2022/12/03 00:10:27;;;;;;;37.97;19.53;;;;;;;1.54;100.00;96373.75;5030899;27;101797;-66
2022/12/03 00:12:55;;;;;;;35.67;20.10;;;;;;;1.49;100.00;96374.31;5031136;27;102859;-66
2022/12/03 00:15:22;;;;;;;32.80;19.83;;;;;;;1.46;100.00;96366.84;5030633;27;102439;-66
2022/12/03 00:17:49;;;;;;;34.30;19.27;;;;;;;1.53;100.00;96372.94;5030679;27;101842;-66
2022/12/03 00:20:21;;;;;;;34.07;20.13;;;;;;;1.51;100.00;96374.13;5029379;28;105479;-66
2022/12/03 00:22:49;;;;;;;32.70;19.23;;;;;;;1.53;100.00;96377.38;5033903;27;103142;-66
2022/12/03 00:25:16;;;;;;;35.83;19.30;;;;;;;1.56;100.00;96374.34;5029479;28;106639;-66
2022/12/03 00:27:43;;;;;;;34.37;19.50;;;;;;;1.59;100.00;96384.44;5030076;27;103054;-66
2022/12/03 00:30:12;;;;;;;34.93;19.87;;;;;;;1.52;100.00;96371.31;5029039;28;102744;-67
2022/12/03 00:32:38;;;;;;;33.13;18.57;;;;;;;1.50;100.00;96375.94;5030783;27;102874;-67
2022/12/03 00:35:06;;;;;;;30.27;19.10;;;;;;;1.52;100.00;96381.78;5028705;28;105374;-67
2022/12/03 00:37:35;;;;;;;35.13;19.77;;;;;;;1.50;100.00;96383.00;5030341;27;101828;-67
2022/12/03 00:40:03;;;;;;;33.63;19.33;;;;;;;1.47;100.00;96383.38;5029364;28;105242;-67
2022/12/03 00:42:29;;;;;;;30.47;18.80;;;;;;;1.49;100.00;96384.00;5028814;27;102460;-67
2022/12/03 00:44:56;;;;;;;34.17;19.60;;;;;;;1.51;100.00;96381.97;5033841;27;101839;-67
2022/12/03 00:47:23;;;;;;;33.20;19.33;;;;;;;1.60;100.00;96380.81;5029906;27;102582;-67
2022/12/03 00:49:50;;;;;;;38.00;20.20;;;;;;;1.67;100.00;96392.13;5025875;28;102329;-67
2022/12/03 00:52:17;;;;;;;37.43;19.40;;;;;;;1.60;100.00;96386.84;5026785;28;105324;-67
2022/12/03 00:54:46;;;;;;;33.17;19.20;;;;;;;1.75;100.00;96384.13;5026162;28;105506;-67
2022/12/03 00:57:13;;;;;;;35.37;19.10;;;;;;;1.76;100.00;96377.88;5028361;27;101816;-66
2022/12/03 00:59:41;;;;;;;33.73;19.13;;;;;;;1.71;100.00;96386.28;5026625;28;105328;-67
2022/12/03 01:02:08;;;;;;;37.33;19.53;;;;;;;1.70;100.00;96391.75;5027371;27;102226;-67
2022/12/03 01:04:35;;;;;;;34.80;19.13;;;;;;;1.71;100.00;96381.06;5028569;27;102159;-67
2022/12/03 01:07:02;;;;;;;38.37;20.60;;;;;;;1.67;100.00;96385.09;5029484;28;105119;-67
2022/12/03 01:09:30;;;;;;;33.47;18.47;;;;;;;1.71;100.00;96380.25;5026542;28;102377;-67
2022/12/03 01:11:59;;;;;;;35.47;20.20;;;;;;;1.69;100.00;96384.91;5027947;28;102528;-67
2022/12/03 01:14:26;;;;;;;37.83;20.10;;;;;;;1.72;100.00;96385.31;5027504;27;103093;-67
2022/12/03 01:16:53;;;;;;;36.23;20.23;;;;;;;1.73;100.00;96376.44;5026428;28;101915;-67
2022/12/03 01:19:20;;;;;;;34.43;18.90;;;;;;;1.71;100.00;96367.16;5027359;28;105729;-67
2022/12/03 01:21:49;;;;;;;35.60;20.10;;;;;;;1.65;100.00;96378.44;5029457;27;102675;-67
2022/12/03 01:24:17;;;;;;;31.57;18.20;;;;;;;1.60;100.00;96378.19;5028491;28;101835;-67
2022/12/03 01:26:44;;;;;;;34.63;19.17;;;;;;;1.65;100.00;96370.56;5029603;27;102337;-67
2022/12/03 01:29:13;;;;;;;38.17;19.90;;;;;;;1.68;100.00;96370.97;5030885;27;102405;-67
2022/12/03 01:34:24;;;;;;;36.63;19.47;;;;;;;1.68;100.00;96373.59;5029230;27;102698;-67
2022/12/03 01:36:52;;;;;;;35.73;20.37;;;;;;;1.73;100.00;96360.72;5028012;28;102289;-67
2022/12/03 01:39:20;;;;;;;38.27;20.70;;;;;;;1.66;100.00;96372.19;5028171;28;104054;-67
2022/12/03 01:41:48;;;;;;;37.83;20.77;;;;;;;1.66;100.00;96374.78;5029153;27;102681;-67
2022/12/03 01:44:21;;;;;;;39.60;20.63;;;;;;;1.57;100.00;96371.53;5029436;27;102106;-67
2022/12/03 01:46:50;;;;;;;34.30;19.43;;;;;;;1.59;100.00;96376.59;5029748;28;102811;-67
2022/12/03 01:49:20;;;;;;;34.87;20.37;;;;;;;1.65;100.00;96373.97;5032010;28;102939;-67
2022/12/03 01:51:50;;;;;;;38.17;20.80;;;;;;;1.55;100.00;96378.78;5029084;27;102656;-67
2022/12/03 01:54:20;;;;;;;40.83;20.63;;;;;;;1.52;100.00;96373.94;5028781;27;102785;-67
2022/12/03 01:56:47;;;;;;;40.43;21.40;;;;;;;1.52;100.00;96375.72;5027934;28;101905;-67
2022/12/03 01:59:18;;;;;;;34.47;20.27;;;;;;;1.49;100.00;96373.50;5029052;27;102343;-67
2022/12/03 02:01:45;;;;;;;37.43;20.43;;;;;;;1.54;100.00;96365.88;5028693;27;101971;-67
2022/12/03 02:04:16;;;;;;;37.43;21.10;;;;;;;1.55;100.00;96364.88;5029047;27;101752;-67
2022/12/03 02:06:44;;;;;;;36.13;20.87;;;;;;;1.42;100.00;96367.44;5027761;28;105326;-67
2022/12/03 02:09:12;;;;;;;37.53;20.90;;;;;;;1.46;100.00;96372.09;5027426;28;105569;-67
2022/12/03 02:11:44;;;;;;;37.93;21.53;;;;;;;1.38;100.00;96364.38;5030968;28;101959;-67
2022/12/03 02:14:17;;;;;;;37.83;21.30;;;;;;;1.46;100.00;96371.28;5027093;28;103928;-67
2022/12/03 02:16:46;;;;;;;38.13;21.57;;;;;;;1.45;100.00;96367.03;5029302;27;101738;-67
2022/12/03 02:19:20;;;;;;;39.53;20.60;;;;;;;1.41;100.00;96377.09;5027735;28;105674;-67
2022/12/03 02:21:54;;;;;;;38.50;20.60;;;;;;;1.44;100.00;96368.06;5027191;28;106647;-67
2022/12/03 02:24:26;;;;;;;42.30;20.90;;;;;;;1.49;100.00;96360.41;5029239;27;101700;-67
2022/12/03 02:26:55;;;;;;;39.07;21.50;;;;;;;1.55;100.00;96364.88;5029081;27;102876;-67
2022/12/03 02:29:25;;;;;;;39.20;21.10;;;;;;;1.59;100.00;96363.50;5026797;28;105855;-67
2022/12/03 02:31:53;;;;;;;42.20;21.87;;;;;;;1.62;100.00;96358.66;5029027;27;102007;-67
2022/12/03 02:34:35;;;;;;;39.63;20.73;;;;;;;1.63;100.00;96356.81;5032028;27;102979;-67
2022/12/03 02:37:03;;;;;;;33.90;19.13;;;;;;;1.64;100.00;96368.97;5027458;28;102225;-67
2022/12/03 02:39:31;;;;;;;39.00;21.23;;;;;;;1.68;100.00;96370.97;5027374;28;104587;-67
2022/12/03 02:44:47;;;;;;;39.17;20.90;;;;;;;1.61;100.00;96366.72;5000625;28;101996;-67
2022/12/03 02:47:14;;;;;;;40.17;21.57;;;;;;;1.63;100.00;96357.66;5028941;27;102949;-67
2022/12/03 02:49:42;;;;;;;37.83;20.50;;;;;;;1.67;100.00;96373.78;5027872;27;103326;-67
2022/12/03 02:52:09;;;;;;;44.17;21.43;;;;;;;1.64;100.00;96375.00;5028685;27;101839;-67
2022/12/03 02:54:36;;;;;;;41.07;20.87;;;;;;;1.60;100.00;96360.66;5028756;27;102904;-67
2022/12/03 02:57:04;;;;;;;39.13;21.00;;;;;;;1.60;100.00;96363.28;5029543;28;105580;-67
2022/12/03 02:59:32;;;;;;;41.10;21.60;;;;;;;1.57;100.00;96361.06;5028460;27;102331;-67
2022/12/03 03:02:00;;;;;;;37.37;21.33;;;;;;;1.51;100.00;96359.22;5026380;28;105825;-68
2022/12/03 03:04:27;;;;;;;39.43;21.10;;;;;;;1.52;100.00;96354.78;5028763;27;101986;-67
2022/12/03 03:06:55;;;;;;;42.17;22.00;;;;;;;1.51;100.00;96364.47;5029174;27;105360;-67
2022/12/03 03:09:22;;;;;;;44.67;21.73;;;;;;;1.49;100.00;96355.19;5031156;27;102564;-67
2022/12/03 03:11:49;;;;;;;40.43;21.43;;;;;;;1.48;100.00;96351.72;5031683;27;102478;-67
2022/12/03 03:14:18;;;;;;;40.37;21.50;;;;;;;1.50;100.00;96355.00;5030460;28;105641;-67
2022/12/03 03:16:51;;;;;;;43.60;22.57;;;;;;;1.47;100.00;96354.53;5031381;27;102506;-67
2022/12/03 03:19:18;;;;;;;41.50;21.20;;;;;;;1.50;100.00;96354.16;5035219;27;101651;-67
2022/12/03 03:21:47;;;;;;;41.60;21.23;;;;;;;1.55;100.00;96359.63;5030014;28;105310;-67
2022/12/03 03:24:15;;;;;;;40.63;21.37;;;;;;;1.47;100.00;96357.16;5032139;27;101668;-67
2022/12/03 03:26:42;;;;;;;41.53;22.33;;;;;;;1.57;100.00;96362.84;5031618;27;102441;-67
2022/12/03 03:29:09;;;;;;;40.00;21.57;;;;;;;1.62;100.00;96370.94;5030762;27;104232;-67
2022/12/03 03:31:39;;;;;;;41.10;22.43;;;;;;;1.55;100.00;96365.69;5031792;27;102097;-67
2022/12/03 03:34:06;;;;;;;42.73;21.43;;;;;;;1.47;100.00;96365.84;5031854;27;102475;-67
2022/12/03 03:36:34;;;;;;;42.17;21.77;;;;;;;1.56;100.00;96356.81;5029675;28;105942;-67
2022/12/03 03:39:01;;;;;;;42.03;20.83;;;;;;;1.67;100.00;96358.06;5034726;27;101974;-67
2022/12/03 03:41:29;;;;;;;43.73;22.30;;;;;;;1.67;100.00;96364.13;5030948;27;102724;-67
2022/12/03 03:43:57;;;;;;;42.03;21.60;;;;;;;1.58;100.00;96349.56;5031513;27;101866;-67
2022/12/03 03:46:24;;;;;;;43.00;23.87;;;;;;;1.58;100.00;96354.00;5030044;28;105342;-67
2022/12/03 03:48:53;;;;;;;41.20;21.90;;;;;;;1.60;100.00;96354.63;5029267;28;106137;-67
2022/12/03 03:51:20;;;;;;;42.30;22.67;;;;;;;1.67;100.00;96358.88;5031361;27;101780;-67
2022/12/03 03:53:49;;;;;;;38.17;20.90;;;;;;;1.74;100.00;96351.84;5031123;27;102926;-67
2022/12/03 03:56:18;;;;;;;36.90;20.97;;;;;;;1.78;100.00;96345.22;5030803;27;102581;-67
2022/12/03 03:58:46;;;;;;;37.33;21.47;;;;;;;1.74;100.00;96346.59;5029704;28;102009;-67
2022/12/03 04:01:14;;;;;;;40.93;21.73;;;;;;;1.73;100.00;96352.03;5032524;28;103559;-67
2022/12/03 04:03:41;;;;;;;39.30;21.70;;;;;;;1.75;100.00;96350.84;5030834;27;101824;-67
2022/12/03 04:06:10;;;;;;;42.67;21.77;;;;;;;1.79;100.00;96340.75;5031184;27;102781;-67
2022/12/03 04:08:38;;;;;;;41.67;21.93;;;;;;;1.79;100.00;96336.34;5030541;27;102521;-67
2022/12/03 04:13:50;;;;;;;39.57;21.13;;;;;;;1.85;100.00;96347.84;5029703;28;103811;-67
2022/12/03 04:16:17;;;;;;;38.87;21.60;;;;;;;1.92;100.00;96346.06;5029050;28;105715;-67
2022/12/03 04:18:42;;;;;;;39.10;20.63;;;;;;;1.96;100.00;96348.06;5030814;27;102185;-67
2022/12/03 04:23:56;;;;;;;38.67;20.77;;;;;;;2.00;100.00;96335.38;5032350;28;105703;-67
2022/12/03 04:29:07;;;;;;;32.30;18.07;;;;;;;2.15;100.00;96341.25;5030288;27;102529;-67
2022/12/03 04:37:05;;;;;;;28.80;18.40;;;;;;;2.20;100.00;96330.97;5030185;27;103139;-67
2022/12/03 04:39:32;;;;;;;28.53;17.93;;;;;;;2.25;100.00;96328.56;5030471;27;101734;-67
2022/12/03 04:41:59;;;;;;;32.20;18.30;;;;;;;2.27;100.00;96337.03;5030672;27;102776;-67
2022/12/03 04:44:36;;;;;;;31.17;17.80;;;;;;;2.31;100.00;96340.88;5030086;27;103036;-67
2022/12/03 04:47:09;;;;;;;28.90;18.07;;;;;;;2.29;100.00;96351.56;5032347;28;101969;-67
2022/12/03 04:49:38;;;;;;;31.67;18.13;;;;;;;2.27;100.00;96352.78;5028198;28;105806;-67
2022/12/03 04:52:06;;;;;;;29.30;17.97;;;;;;;2.30;100.00;96345.31;5028603;28;101942;-67
2022/12/03 04:54:34;;;;;;;29.97;17.87;;;;;;;2.31;100.00;96346.13;5030466;27;102458;-67
2022/12/03 04:57:01;;;;;;;30.73;18.23;;;;;;;2.15;100.00;96343.88;5029859;27;102858;-67
2022/12/03 04:59:28;;;;;;;32.07;19.03;;;;;;;2.22;100.00;96336.81;5030117;27;101829;-67
2022/12/03 05:01:55;;;;;;;38.93;20.43;;;;;;;2.12;100.00;96339.03;5030312;27;102387;-67
2022/12/03 05:04:22;;;;;;;31.83;19.17;;;;;;;2.13;100.00;96338.03;4988106;28;105334;-67
2022/12/03 05:06:51;;;;;;;32.27;19.07;;;;;;;2.23;100.00;96339.25;4988699;28;102037;-67
2022/12/03 05:09:19;;;;;;;31.10;17.90;;;;;;;2.22;100.00;96342.06;4991389;28;105205;-67
2022/12/03 05:11:48;;;;;;;30.20;19.07;;;;;;;2.24;100.00;96348.72;4988730;28;101870;-67
2022/12/03 05:14:14;;;;;;;32.20;18.87;;;;;;;2.18;100.00;96356.63;4990123;28;104433;-67
2022/12/03 05:16:42;;;;;;;36.80;20.80;;;;;;;2.22;100.00;96363.06;4988026;28;105520;-67
2022/12/03 05:19:10;;;;;;;38.63;21.13;;;;;;;2.12;100.00;96363.44;4989951;28;102043;-67
2022/12/03 05:21:37;;;;;;;35.13;20.53;;;;;;;2.22;100.00;96369.13;4989598;28;102853;-67
2022/12/03 05:24:04;;;;;;;33.37;19.10;;;;;;;2.29;100.00;96369.16;4989364;28;102476;-67
2022/12/03 05:26:33;;;;;;;32.57;18.43;;;;;;;2.29;100.00;96369.16;4989619;28;101818;-67
2022/12/03 05:29:01;;;;;;;28.00;17.03;;;;;;;2.36;100.00;96351.59;4987453;28;105322;-67
2022/12/03 05:31:28;;;;;;;24.97;15.67;;;;;;;2.30;100.00;96347.16;4992710;28;103004;-67
2022/12/03 05:33:55;;;;;;;24.40;15.63;;;;;;;2.28;100.00;96351.75;4987968;28;105707;-67
2022/12/03 05:36:24;;;;;;;24.00;14.70;;;;;;;2.32;100.00;96347.75;4989284;28;103132;-67
2022/12/03 05:38:51;;;;;;;23.20;15.20;;;;;;;2.27;100.00;96363.28;4989657;28;101662;-67
2022/12/03 05:44:03;;;;;;;35.47;19.57;;;;;;;2.19;100.00;96342.50;4988914;28;103031;-67
2022/12/03 05:46:31;;;;;;;33.30;19.50;;;;;;;2.17;100.00;96344.47;4988155;28;101852;-67
2022/12/03 05:48:58;;;;;;;31.20;18.60;;;;;;;2.17;100.00;96345.31;4987846;28;106561;-67
2022/12/03 05:51:25;;;;;;;29.60;17.77;;;;;;;2.10;100.00;96351.53;4990709;28;105979;-67
2022/12/03 05:53:52;;;;;;;29.53;18.57;;;;;;;2.11;100.00;96350.53;4989153;28;103513;-67
2022/12/03 05:56:19;;;;;;;32.17;18.63;;;;;;;2.06;100.00;96352.94;4989304;28;102548;-67
2022/12/03 05:58:45;;;;;;;31.20;17.93;;;;;;;2.13;100.00;96357.19;4989343;28;101921;-67
2022/12/03 06:01:14;;;;;;;31.70;19.20;;;;;;;2.33;100.00;96354.59;4988067;28;105558;-67
2022/12/03 06:03:41;;;;;;;30.97;17.83;;;;;;;2.40;100.00;96350.19;5017606;28;102598;-67
2022/12/03 06:06:08;;;;;;;29.80;17.80;;;;;;;2.40;100.00;96353.59;5029246;27;101875;-67
2022/12/03 06:08:34;;;;;;;26.40;16.50;;;;;;;2.35;100.00;96348.16;5029599;27;102441;-67
2022/12/03 06:11:01;;;;;;;22.17;13.83;;;;;;;2.47;100.00;96345.75;5028748;27;102630;-67
2022/12/03 06:13:28;;;;;;;23.77;14.93;;;;;;;2.35;100.00;96352.59;5032745;27;101795;-67
2022/12/03 06:15:55;;;;;;;25.57;16.83;;;;;;;2.30;100.00;96357.63;5028956;27;101767;-67
2022/12/03 06:18:24;;;;;;;29.10;17.57;;;;;;;2.25;100.00;96362.69;5027850;28;102101;-67
2022/12/03 06:20:51;;;;;;;28.73;17.40;;;;;;;2.28;100.00;96362.25;5027404;28;105376;-67
2022/12/03 06:23:18;;;;;;;28.83;17.37;;;;;;;2.30;100.00;96360.25;5027458;28;103977;-67
2022/12/03 06:25:45;;;;;;;28.17;16.93;;;;;;;2.17;100.00;96354.97;5027845;28;101952;-67
2022/12/03 06:28:12;;;;;;;30.33;17.67;;;;;;;2.18;100.00;96356.63;5029421;27;102963;-67
2022/12/03 06:30:39;;;;;;;28.07;17.57;;;;;;;2.11;100.00;96358.41;5027154;28;105889;-67
2022/12/03 06:33:07;;;;;;;27.60;16.80;;;;;;;2.11;100.00;96356.59;5027605;28;102291;-67
2022/12/03 06:35:37;;;;;;;28.33;16.37;;;;;;;2.05;100.00;96357.38;5013632;28;105473;-67
2022/12/03 06:38:04;;;;;;;28.63;17.87;;;;;;;1.98;100.00;96359.16;5027675;28;102124;-67
2022/12/03 06:40:31;;;;;;;29.30;17.30;;;;;;;1.94;100.00;96360.59;5029283;28;105037;-67
2022/12/03 06:42:58;;;;;;;27.57;16.77;;;;;;;2.03;100.00;96358.59;5031934;27;104471;-67
2022/12/03 06:45:25;;;;;;;30.13;18.27;;;;;;;2.09;100.00;96352.56;5032426;27;101735;-67
2022/12/03 06:47:52;;;;;;;27.07;16.50;;;;;;;2.12;100.00;96342.47;5031065;28;105518;-67
2022/12/03 06:50:19;;;;;;;28.60;17.53;;;;;;;2.00;100.00;96338.81;5030214;28;106010;-67
2022/12/03 06:52:48;;;;;;;31.50;18.23;;;;;;;2.12;100.00;96347.72;5030856;28;101907;-67
2022/12/03 06:55:15;;;;;;;31.13;18.30;;;;;;;2.13;100.00;96348.53;5032349;27;102572;-67
2022/12/03 06:57:42;;;;;;;32.60;20.07;;;;;;;2.12;100.00;96352.13;5033696;28;105537;-67
2022/12/03 07:00:10;;;;;;;28.83;18.77;;;;;;;2.11;100.00;96355.78;5030483;28;105748;-67
2022/12/03 07:02:37;;;;;;;32.33;18.57;;;;;;;2.05;100.00;96356.56;5031447;27;102571;-67
2022/12/03 07:05:04;;;;;;;31.77;19.10;;;;;;;1.99;100.00;96346.88;5032454;27;101870;-67
2022/12/03 07:07:31;;;;;;;31.00;18.70;;;;;;;1.93;100.00;96356.34;5031785;27;102533;-67
2022/12/03 07:10:00;;;;;;;30.63;18.40;;;;;;;1.92;100.00;96352.09;5030129;28;105880;-67
2022/12/03 07:12:27;;;;;;;31.07;18.60;;;;;;;1.86;100.00;96352.09;5030439;28;101840;-67
2022/12/03 07:14:54;;;;;;;31.73;17.70;;;;;;;1.80;100.00;96358.13;5031939;27;102345;-67
2022/12/03 07:17:21;;;;;;;29.57;19.20;;;;;;;1.83;100.00;96363.78;5029579;28;105697;-67
2022/12/03 07:19:48;;;;;;;32.80;20.40;;;;;;;1.88;100.00;96365.81;5033929;28;101860;-67
2022/12/03 07:22:16;;;;;;;32.93;19.53;;;;;;;1.92;100.00;96367.03;5029700;28;105461;-67
2022/12/03 07:24:43;;;;;;;31.63;18.77;;;;;;;1.94;100.00;96365.00;5032076;27;101663;-67
2022/12/03 07:27:11;;;;;;;32.47;19.57;;;;;;;1.89;100.00;96363.00;5031813;27;102363;-67
2022/12/03 07:29:38;;;;;;;30.93;19.27;;;;;;;1.90;100.00;96363.78;5029519;28;105748;-67
2022/12/03 07:32:06;;;;;;;30.40;18.40;;;;;;;1.91;100.00;96360.19;5031504;27;101793;-67
2022/12/03 07:34:33;;;;;;;37.07;20.17;;;;;;;1.97;100.00;96360.19;5029875;28;105037;-67
2022/12/03 07:37:00;;;;;;;32.27;20.13;;;;;;;2.02;100.00;96372.72;5031101;27;102507;-67
2022/12/03 07:39:27;;;;;;;35.80;20.43;;;;;;;2.07;100.00;96365.84;5031637;27;102067;-67
2022/12/03 07:41:54;;;;;;;34.10;19.80;;;;;;;1.96;100.00;96355.94;5034704;28;102540;-67
2022/12/03 07:44:22;;;;;;;34.30;19.67;;;;;;;2.10;100.00;96367.28;5031528;27;101771;-67
2022/12/03 07:46:50;;;;;;;34.63;19.93;;;;;;;2.19;100.00;96363.47;5031309;27;102487;-67
2022/12/03 07:49:16;;;;;;;36.80;20.60;;;;;;;2.15;100.00;96362.25;5030311;27;102769;-67
2022/12/03 07:51:52;;;;;;;36.27;21.50;;;;;;;2.01;100.00;96358.78;5030550;27;101820;-67
2022/12/03 07:54:19;;;;;;;35.70;19.90;;;;;;;2.04;100.00;96355.78;5031550;27;101987;-67
2022/12/03 07:56:46;;;;;;;36.77;20.93;;;;;;;2.16;100.00;96358.63;5030597;27;102506;-67
2022/12/03 07:59:14;;;;;;;35.10;19.67;;;;;;;2.10;100.00;96357.59;5031061;28;101883;-67
2022/12/03 08:01:43;;;;;;;33.47;20.10;;;;;;;2.07;100.00;96346.72;5032729;28;105645;-67
2022/12/03 08:04:10;;;;;;;33.70;19.90;;;;;;;2.16;100.00;96356.00;5030719;27;101935;-67
2022/12/03 08:06:38;;;;;;;36.90;19.83;;;;;;;2.15;100.00;96357.00;5030969;28;102809;-67
2022/12/03 08:09:05;;;;;;;33.03;19.70;;;;;;;2.14;100.00;96363.25;5030579;28;102539;-67
2022/12/03 08:11:33;;;;;;;36.17;21.13;;;;;;;2.03;100.00;96362.00;5031194;28;101793;-67
2022/12/03 08:14:00;;;;;;;32.17;19.27;;;;;;;2.05;100.00;96356.56;5030703;27;104092;-67
2022/12/03 08:16:27;;;;;;;32.63;19.60;;;;;;;2.20;100.00;96359.84;5030286;27;103080;-67
2022/12/03 08:18:56;;;;;;;31.87;19.37;;;;;;;2.35;100.00;96358.63;5030958;28;101793;-67
2022/12/03 08:21:23;;;;;;;31.77;19.17;;;;;;;2.46;100.00;96358.03;5030818;27;104127;-68
2022/12/03 08:23:50;;;;;;;31.00;18.43;;;;;;;2.57;100.00;96354.03;5032301;28;106038;-68
2022/12/03 08:26:22;;;;;;;28.80;17.53;;;;;;;2.50;100.00;96354.03;5029446;28;106273;-68
2022/12/03 08:28:49;;;;;;;28.20;18.13;;;;;;;2.49;100.00;96354.22;5030159;27;103226;-68
2022/12/03 08:31:19;;;;;;;29.70;18.13;;;;;;;2.57;100.00;96349.56;5030976;27;101831;-67
2022/12/03 08:33:48;;;;;;;28.97;18.10;;;;;;;2.47;100.00;96351.78;5030557;28;103414;-67
2022/12/03 08:36:19;;;;;;;27.97;17.67;;;;;;;2.44;100.00;96343.50;5028764;28;105222;-68
2022/12/03 08:38:50;;;;;;;28.93;16.97;;;;;;;2.42;100.00;96345.53;5030481;27;102061;-68
2022/12/03 08:42:40;;;;;;;26.93;17.57;;;;;;;2.46;100.00;96338.88;5028864;28;105132;-67
2022/12/03 08:44:21;;;;;;;28.50;16.57;;;;;;;2.43;100.00;96347.16;5028367;28;105664;-67
2022/12/03 08:46:53;;;;;;;27.30;16.90;;;;;;;2.52;100.00;96345.94;5032372;28;101962;-68
2022/12/03 08:49:21;;;;;;;25.67;16.27;;;;;;;2.58;100.00;96347.75;5029907;27;102558;-68
2022/12/03 08:51:56;;;;;;;26.80;15.93;;;;;;;2.73;100.00;96340.50;5030309;27;101787;-67
2022/12/03 08:54:25;;;;;;;26.50;17.00;;;;;;;2.73;100.00;96345.75;5030555;27;102274;-68
2022/12/03 08:56:54;;;;;;;26.87;15.70;;;;;;;2.92;100.00;96344.91;5028184;28;105422;-68
2022/12/03 08:59:26;;;;;;;24.90;15.77;;;;;;;2.91;100.00;96343.31;5028934;28;102582;-68
2022/12/03 09:01:53;;;;;;;25.07;16.70;;;;;;;2.80;100.00;96343.94;5028859;28;105785;-68
2022/12/03 09:04:27;;;;;;;27.43;16.57;;;;;;;2.75;100.00;96349.78;5028463;27;103185;-68
2022/12/03 09:06:56;;;;;;;29.47;17.67;;;;;;;2.69;100.00;96344.53;5030279;27;101735;-67
2022/12/03 09:09:24;;;;;;;33.43;18.53;;;;;;;2.83;100.00;96348.75;5033146;28;102324;-67
2022/12/03 09:11:52;;;;;;;33.80;18.80;;;;;;;2.93;100.00;96351.78;5030179;27;101845;-67
2022/12/03 09:14:21;;;;;;;31.57;18.50;;;;;;;2.98;100.00;96354.59;5029902;28;102436;-67
2022/12/03 09:16:50;;;;;;;32.53;19.27;;;;;;;2.96;100.00;96346.13;5029446;27;102774;-67
2022/12/03 09:19:17;;;;;;;31.97;18.07;;;;;;;3.01;100.00;96338.44;5029749;27;101830;-68
2022/12/03 09:21:44;;;;;;;30.63;17.50;;;;;;;2.95;100.00;96341.91;5029712;27;102832;-67
2022/12/03 09:24:13;;;;;;;28.53;18.43;;;;;;;2.83;100.00;96346.94;5029643;27;103198;-67
2022/12/03 09:26:40;;;;;;;29.97;18.73;;;;;;;2.79;100.00;96350.97;5028563;28;101910;-67
2022/12/03 09:29:07;;;;;;;26.93;17.97;;;;;;;2.78;100.00;96338.06;5028456;28;105246;-67
2022/12/03 09:31:34;;;;;;;31.90;18.57;;;;;;;2.94;100.00;96341.06;5031357;28;105254;-68
2022/12/03 09:34:02;;;;;;;30.77;19.93;;;;;;;2.96;100.00;96339.03;5028136;28;105393;-67
2022/12/03 09:36:30;;;;;;;31.80;18.67;;;;;;;2.86;100.00;96330.78;5027829;28;103861;-67
2022/12/03 09:38:57;;;;;;;29.47;17.73;;;;;;;2.76;100.00;96329.56;5029848;27;101678;-67
2022/12/03 09:41:26;;;;;;;27.57;17.07;;;;;;;2.77;100.00;96332.00;5029574;27;102491;-67
2022/12/03 09:43:54;;;;;;;30.63;18.30;;;;;;;3.02;100.00;96319.03;5028773;27;103230;-68
2022/12/03 09:46:22;;;;;;;27.57;18.13;;;;;;;2.95;100.00;96323.50;5029693;27;101669;-68
2022/12/03 09:48:50;;;;;;;28.97;18.37;;;;;;;2.85;100.00;96318.66;5027996;28;104962;-68
2022/12/03 09:51:18;;;;;;;30.10;17.90;;;;;;;2.83;100.00;96325.94;5028809;27;102561;-68
2022/12/03 09:53:46;;;;;;;28.00;16.43;;;;;;;2.79;100.00;96314.22;5032854;27;101861;-67
2022/12/03 09:56:20;;;;;;;25.63;16.17;;;;;;;2.75;100.00;96317.47;5027434;28;105259;-68
2022/12/03 09:58:49;;;;;;;26.67;16.33;;;;;;;2.79;100.00;96310.81;5027955;28;102704;-68
2022/12/03 10:01:17;;;;;;;22.57;15.10;;;;;;;2.70;100.00;96307.59;5027984;28;105659;-68
2022/12/03 10:03:47;;;;;;;26.10;15.33;;;;;;;2.61;100.00;96306.16;5028570;27;103083;-67
2022/12/03 10:06:17;;;;;;;27.10;16.83;;;;;;;2.59;100.00;96308.19;5027998;28;101938;-66
2022/12/03 10:08:48;;;;;;;26.77;16.13;;;;;;;2.62;100.00;96302.53;5029263;27;102337;-66
2022/12/03 10:11:16;;;;;;;27.23;17.27;;;;;;;2.69;100.00;96295.44;5028848;27;102538;-66
2022/12/03 10:13:43;;;;;;;29.27;17.80;;;;;;;2.78;100.00;96294.22;5032334;27;101813;-66
2022/12/03 10:16:14;;;;;;;28.47;17.97;;;;;;;2.72;100.00;96302.09;5026958;28;105373;-66
2022/12/03 10:18:44;;;;;;;27.63;17.00;;;;;;;2.81;100.00;96291.22;5028955;27;101932;-66
2022/12/03 10:21:17;;;;;;;25.17;16.37;;;;;;;2.86;100.00;96288.78;5027551;28;104993;-66
2022/12/03 10:23:44;;;;;;;24.17;16.00;;;;;;;2.88;100.00;96284.13;5028620;27;102578;-66
2022/12/03 10:26:11;;;;;;;25.10;16.70;;;;;;;2.97;100.00;96279.47;5027700;28;101874;-66
2022/12/03 10:28:40;;;;;;;25.77;16.70;;;;;;;3.03;100.00;96278.63;5027604;28;105814;-66
2022/12/03 10:31:10;;;;;;;19.30;12.60;;;;;;;3.03;100.00;96276.00;5027276;28;105085;-66
2022/12/03 10:33:43;;;;;;;18.40;12.43;;;;;;;3.21;100.00;96271.69;5027471;28;102046;-66
2022/12/03 10:36:22;;;;;;;19.30;13.10;;;;;;;3.24;100.00;96259.97;5030419;28;103745;-66
2022/12/03 10:39:07;;;;;;;17.73;12.80;;;;;;;3.34;100.00;96262.97;5027451;28;101761;-66
2022/12/03 10:41:34;;;;;;;15.20;11.07;;;;;;;3.38;100.00;96261.53;5028909;27;102486;-66
2022/12/03 10:44:17;;;;;;;16.07;11.57;;;;;;;3.47;100.00;96249.75;5028443;27;103156;-66
2022/12/03 10:46:44;;;;;;;14.93;11.17;;;;;;;3.57;100.00;96258.81;5028978;27;101747;-66
2022/12/03 10:49:17;;;;;;;16.57;11.93;;;;;;;3.74;100.00;96261.75;5026976;28;105362;-66
2022/12/03 10:51:45;;;;;;;21.17;13.80;;;;;;;3.59;100.00;96250.72;5028348;27;103533;-66
2022/12/03 10:54:18;;;;;;;16.47;11.73;;;;;;;3.63;100.00;96244.84;5027357;28;102189;-66
2022/12/03 10:56:47;;;;;;;17.70;11.83;;;;;;;3.70;100.00;96244.78;5027162;28;105407;-66
2022/12/03 10:59:18;;;;;;;14.47;10.73;;;;;;;3.82;100.00;96245.75;5029931;28;105591;-66
2022/12/03 11:01:45;;;;;;;15.57;11.17;;;;;;;3.82;100.00;96248.38;5028786;28;102339;-66
2022/12/03 11:04:20;;;;;;;16.73;11.73;;;;;;;3.84;100.00;96246.31;5026612;28;105324;-66
2022/12/03 11:06:47;;;;;;;15.90;11.80;;;;;;;3.80;100.00;96239.88;5027083;27;102033;-68
2022/12/03 11:09:19;;;;;;;16.17;11.53;;;;;;;3.61;100.00;96243.44;5025984;28;105622;-69
2022/12/03 11:11:47;;;;;;;16.63;11.53;;;;;;;3.77;100.00;96235.06;5025689;28;106043;-69
2022/12/03 11:14:53;;;;;;;16.60;11.40;;;;;;;3.88;100.00;96242.25;5027971;27;101797;-67
2022/12/03 11:17:41;;;;;;;16.07;12.00;;;;;;;3.99;100.00;96237.09;5028157;28;102545;-69
2022/12/03 11:20:26;;;;;;;15.90;11.13;;;;;;;4.02;100.00;96230.63;5025756;28;105344;-69
2022/12/03 11:22:54;;;;;;;16.03;11.07;;;;;;;3.94;100.00;96220.38;5026066;28;101885;-69
2022/12/03 11:25:56;;;;;;;13.60;10.27;;;;;;;3.96;100.00;96224.41;5027306;27;103096;-69
2022/12/03 11:28:38;;;;;;;15.27;11.27;;;;;;;3.99;100.00;96228.44;5030453;27;102015;-69
2022/12/03 11:31:11;;;;;;;16.17;11.73;;;;;;;3.82;100.00;96224.69;5031268;28;103893;-69
2022/12/03 11:33:42;;;;;;;16.20;11.90;;;;;;;3.73;100.00;96216.25;5029185;28;105388;-69
2022/12/03 11:36:14;;;;;;;16.90;11.87;;;;;;;3.76;100.00;96222.94;5031139;27;101754;-69
2022/12/03 11:38:48;;;;;;;15.70;12.00;;;;;;;3.59;100.00;96219.97;5031164;27;102811;-69